sensor_id;sensor_type;location;lat;lon;timestamp;temperature;humidity
67799;SHT30;54596;43.216;27.904;2023-03-01T00:00:08;6.06;91.53
67799;SHT30;54596;43.216;27.904;2023-03-01T00:02:33;6.03;92.11
67799;SHT30;54596;43.216;27.904;2023-03-01T00:04:59;6.01;91.88
67799;SHT30;54596;43.216;27.904;2023-03-01T00:07:24;5.99;91.85
67799;SHT30;54596;43.216;27.904;2023-03-01T00:09:50;6.02;92.17
67799;SHT30;54596;43.216;27.904;2023-03-01T00:12:15;5.95;92.25
67799;SHT30;54596;43.216;27.904;2023-03-01T00:14:41;5.95;92.02
67799;SHT30;54596;43.216;27.904;2023-03-01T00:17:06;5.92;92.13
67799;SHT30;54596;43.216;27.904;2023-03-01T00:19:32;5.97;92.08
67799;SHT30;54596;43.216;27.904;2023-03-01T00:21:57;5.89;91.88
67799;SHT30;54596;43.216;27.904;2023-03-01T00:24:23;5.84;91.89
67799;SHT30;54596;43.216;27.904;2023-03-01T00:26:48;5.89;92.16
67799;SHT30;54596;43.216;27.904;2023-03-01T00:29:17;5.89;92.07
67799;SHT30;54596;43.216;27.904;2023-03-01T00:31:43;5.79;92.02
67799;SHT30;54596;43.216;27.904;2023-03-01T00:34:09;5.85;91.88
67799;SHT30;54596;43.216;27.904;2023-03-01T00:36:36;5.82;91.91
67799;SHT30;54596;43.216;27.904;2023-03-01T00:39:03;5.75;91.97
67799;SHT30;54596;43.216;27.904;2023-03-01T00:41:30;5.70;92.28
67799;SHT30;54596;43.216;27.904;2023-03-01T00:43:56;5.61;92.65
67799;SHT30;54596;43.216;27.904;2023-03-01T00:46:26;5.64;92.66
67799;SHT30;54596;43.216;27.904;2023-03-01T00:48:52;5.64;92.46
67799;SHT30;54596;43.216;27.904;2023-03-01T00:51:23;5.61;92.21
67799;SHT30;54596;43.216;27.904;2023-03-01T00:53:53;5.61;90.91
67799;SHT30;54596;43.216;27.904;2023-03-01T00:56:19;5.61;90.42
67799;SHT30;54596;43.216;27.904;2023-03-01T00:58:45;5.63;90.41
67799;SHT30;54596;43.216;27.904;2023-03-01T01:01:14;5.65;90.36
67799;SHT30;54596;43.216;27.904;2023-03-01T01:03:48;5.64;89.85
67799;SHT30;54596;43.216;27.904;2023-03-01T01:06:16;5.61;89.85
67799;SHT30;54596;43.216;27.904;2023-03-01T01:08:42;5.64;89.73
67799;SHT30;54596;43.216;27.904;2023-03-01T01:11:09;5.64;90.01
67799;SHT30;54596;43.216;27.904;2023-03-01T01:13:35;5.60;89.29
67799;SHT30;54596;43.216;27.904;2023-03-01T01:16:02;5.60;89.20
67799;SHT30;54596;43.216;27.904;2023-03-01T01:18:31;5.60;89.55
67799;SHT30;54596;43.216;27.904;2023-03-01T01:20:56;5.57;89.50
67799;SHT30;54596;43.216;27.904;2023-03-01T01:23:22;5.60;89.50
67799;SHT30;54596;43.216;27.904;2023-03-01T01:25:47;5.61;89.51
67799;SHT30;54596;43.216;27.904;2023-03-01T01:28:13;5.61;89.31
67799;SHT30;54596;43.216;27.904;2023-03-01T01:30:38;5.58;89.23
67799;SHT30;54596;43.216;27.904;2023-03-01T01:33:04;5.63;89.21
67799;SHT30;54596;43.216;27.904;2023-03-01T01:35:29;5.67;89.29
67799;SHT30;54596;43.216;27.904;2023-03-01T01:37:55;5.72;89.21
67799;SHT30;54596;43.216;27.904;2023-03-01T01:40:20;5.72;89.22
67799;SHT30;54596;43.216;27.904;2023-03-01T01:42:46;5.72;88.85
67799;SHT30;54596;43.216;27.904;2023-03-01T01:45:24;5.70;89.53
67799;SHT30;54596;43.216;27.904;2023-03-01T01:47:52;5.71;89.63
67799;SHT30;54596;43.216;27.904;2023-03-01T01:50:22;5.71;89.34
67799;SHT30;54596;43.216;27.904;2023-03-01T01:52:50;5.71;89.87
67799;SHT30;54596;43.216;27.904;2023-03-01T01:55:20;5.74;89.59
67799;SHT30;54596;43.216;27.904;2023-03-01T01:58:08;5.65;89.50
67799;SHT30;54596;43.216;27.904;2023-03-01T02:00:34;5.68;90.20
67799;SHT30;54596;43.216;27.904;2023-03-01T02:03:22;5.60;90.12
67799;SHT30;54596;43.216;27.904;2023-03-01T02:08:37;5.61;90.70
67799;SHT30;54596;43.216;27.904;2023-03-01T02:11:10;5.63;90.85
67799;SHT30;54596;43.216;27.904;2023-03-01T02:13:40;5.65;90.93
67799;SHT30;54596;43.216;27.904;2023-03-01T02:16:13;5.65;90.80
67799;SHT30;54596;43.216;27.904;2023-03-01T02:18:49;5.65;90.79
67799;SHT30;54596;43.216;27.904;2023-03-01T02:23:50;5.67;90.67
67799;SHT30;54596;43.216;27.904;2023-03-01T02:26:36;5.68;90.76
67799;SHT30;54596;43.216;27.904;2023-03-01T02:29:06;5.67;90.33
67799;SHT30;54596;43.216;27.904;2023-03-01T02:31:35;5.72;90.46
67799;SHT30;54596;43.216;27.904;2023-03-01T02:34:09;5.72;90.38
67799;SHT30;54596;43.216;27.904;2023-03-01T02:36:38;5.74;90.16
67799;SHT30;54596;43.216;27.904;2023-03-01T02:39:08;5.75;90.01
67799;SHT30;54596;43.216;27.904;2023-03-01T02:41:42;5.79;90.25
67799;SHT30;54596;43.216;27.904;2023-03-01T02:44:08;5.82;90.19
67799;SHT30;54596;43.216;27.904;2023-03-01T02:46:43;5.82;90.12
67799;SHT30;54596;43.216;27.904;2023-03-01T02:49:25;5.82;90.20
67799;SHT30;54596;43.216;27.904;2023-03-01T02:55:12;5.91;89.98
67799;SHT30;54596;43.216;27.904;2023-03-01T02:57:44;5.87;89.19
67799;SHT30;54596;43.216;27.904;2023-03-01T03:00:15;5.77;89.34
67799;SHT30;54596;43.216;27.904;2023-03-01T03:02:51;5.75;89.80
67799;SHT30;54596;43.216;27.904;2023-03-01T03:05:30;5.75;89.70
67799;SHT30;54596;43.216;27.904;2023-03-01T03:07:57;5.79;89.91
67799;SHT30;54596;43.216;27.904;2023-03-01T03:10:26;5.81;89.68
67799;SHT30;54596;43.216;27.904;2023-03-01T03:12:58;5.82;89.28
67799;SHT30;54596;43.216;27.904;2023-03-01T03:15:25;5.78;89.22
67799;SHT30;54596;43.216;27.904;2023-03-01T03:17:52;5.75;89.36
67799;SHT30;54596;43.216;27.904;2023-03-01T03:20:20;5.72;88.87
67799;SHT30;54596;43.216;27.904;2023-03-01T03:22:52;5.70;89.18
67799;SHT30;54596;43.216;27.904;2023-03-01T03:25:18;5.71;89.28
67799;SHT30;54596;43.216;27.904;2023-03-01T03:27:45;5.70;89.44
67799;SHT30;54596;43.216;27.904;2023-03-01T03:30:14;5.68;89.25
67799;SHT30;54596;43.216;27.904;2023-03-01T03:32:44;5.70;88.94
67799;SHT30;54596;43.216;27.904;2023-03-01T03:35:31;5.68;89.15
67799;SHT30;54596;43.216;27.904;2023-03-01T03:38:00;5.70;89.42
67799;SHT30;54596;43.216;27.904;2023-03-01T03:40:31;5.72;89.19
67799;SHT30;54596;43.216;27.904;2023-03-01T03:43:20;5.74;88.94
67799;SHT30;54596;43.216;27.904;2023-03-01T03:45:46;5.75;89.06
67799;SHT30;54596;43.216;27.904;2023-03-01T03:48:13;5.81;89.12
67799;SHT30;54596;43.216;27.904;2023-03-01T03:50:40;5.87;89.13
67799;SHT30;54596;43.216;27.904;2023-03-01T03:53:11;5.91;89.08
67799;SHT30;54596;43.216;27.904;2023-03-01T03:55:37;5.84;89.17
67799;SHT30;54596;43.216;27.904;2023-03-01T03:58:25;5.77;89.30
67799;SHT30;54596;43.216;27.904;2023-03-01T04:00:53;5.71;89.41
67799;SHT30;54596;43.216;27.904;2023-03-01T04:03:19;5.74;89.61
67799;SHT30;54596;43.216;27.904;2023-03-01T04:05:46;5.68;89.61
67799;SHT30;54596;43.216;27.904;2023-03-01T04:08:12;5.67;89.81
67799;SHT30;54596;43.216;27.904;2023-03-01T04:10:42;5.64;90.00
67799;SHT30;54596;43.216;27.904;2023-03-01T04:13:12;5.64;89.95
67799;SHT30;54596;43.216;27.904;2023-03-01T04:15:39;5.67;89.87
67799;SHT30;54596;43.216;27.904;2023-03-01T04:18:05;5.67;89.95
67799;SHT30;54596;43.216;27.904;2023-03-01T04:20:32;5.63;90.15
67799;SHT30;54596;43.216;27.904;2023-03-01T04:23:09;5.64;89.93
67799;SHT30;54596;43.216;27.904;2023-03-01T04:28:14;5.68;90.16
67799;SHT30;54596;43.216;27.904;2023-03-01T04:30:40;5.67;90.09
67799;SHT30;54596;43.216;27.904;2023-03-01T04:33:11;5.71;89.65
67799;SHT30;54596;43.216;27.904;2023-03-01T04:35:37;5.84;89.68
67799;SHT30;54596;43.216;27.904;2023-03-01T04:38:04;5.92;89.33
67799;SHT30;54596;43.216;27.904;2023-03-01T04:40:30;5.94;89.09
67799;SHT30;54596;43.216;27.904;2023-03-01T04:42:56;5.97;88.81
67799;SHT30;54596;43.216;27.904;2023-03-01T04:45:22;5.97;88.83
67799;SHT30;54596;43.216;27.904;2023-03-01T04:47:47;5.92;88.15
67799;SHT30;54596;43.216;27.904;2023-03-01T04:50:15;5.95;88.05
67799;SHT30;54596;43.216;27.904;2023-03-01T04:52:42;5.98;87.75
67799;SHT30;54596;43.216;27.904;2023-03-01T04:55:10;5.98;87.94
67799;SHT30;54596;43.216;27.904;2023-03-01T04:57:36;5.99;87.96
67799;SHT30;54596;43.216;27.904;2023-03-01T05:00:03;5.99;88.22
67799;SHT30;54596;43.216;27.904;2023-03-01T05:02:46;6.02;87.89
67799;SHT30;54596;43.216;27.904;2023-03-01T05:05:13;6.03;87.90
67799;SHT30;54596;43.216;27.904;2023-03-01T05:07:39;6.01;87.41
67799;SHT30;54596;43.216;27.904;2023-03-01T05:10:04;6.05;88.21
67799;SHT30;54596;43.216;27.904;2023-03-01T05:12:30;6.06;87.70
67799;SHT30;54596;43.216;27.904;2023-03-01T05:14:56;6.03;87.55
67799;SHT30;54596;43.216;27.904;2023-03-01T05:17:23;6.06;87.77
67799;SHT30;54596;43.216;27.904;2023-03-01T05:19:49;6.12;87.63
67799;SHT30;54596;43.216;27.904;2023-03-01T05:22:15;6.06;87.44
67799;SHT30;54596;43.216;27.904;2023-03-01T05:24:40;5.91;86.43
67799;SHT30;54596;43.216;27.904;2023-03-01T05:27:06;5.85;87.10
67799;SHT30;54596;43.216;27.904;2023-03-01T05:29:32;5.85;87.18
67799;SHT30;54596;43.216;27.904;2023-03-01T05:32:01;5.89;87.08
67799;SHT30;54596;43.216;27.904;2023-03-01T05:34:33;5.91;87.67
67799;SHT30;54596;43.216;27.904;2023-03-01T05:37:00;5.89;87.55
67799;SHT30;54596;43.216;27.904;2023-03-01T05:39:27;5.88;87.40
67799;SHT30;54596;43.216;27.904;2023-03-01T05:42:00;5.89;87.83
67799;SHT30;54596;43.216;27.904;2023-03-01T05:44:27;5.88;87.81
67799;SHT30;54596;43.216;27.904;2023-03-01T05:46:53;5.87;87.43
67799;SHT30;54596;43.216;27.904;2023-03-01T05:49:19;5.87;87.77
67799;SHT30;54596;43.216;27.904;2023-03-01T05:51:49;5.82;87.75
67799;SHT30;54596;43.216;27.904;2023-03-01T05:54:16;5.85;87.35
67799;SHT30;54596;43.216;27.904;2023-03-01T05:56:42;5.95;87.76
67799;SHT30;54596;43.216;27.904;2023-03-01T05:59:08;6.02;87.28
67799;SHT30;54596;43.216;27.904;2023-03-01T06:01:35;5.99;87.03
67799;SHT30;54596;43.216;27.904;2023-03-01T06:04:02;5.98;87.18
67799;SHT30;54596;43.216;27.904;2023-03-01T06:06:27;6.05;87.28
67799;SHT30;54596;43.216;27.904;2023-03-01T06:08:54;6.02;87.22
67799;SHT30;54596;43.216;27.904;2023-03-01T06:11:20;6.02;87.08
67799;SHT30;54596;43.216;27.904;2023-03-01T06:13:46;6.09;88.39
67799;SHT30;54596;43.216;27.904;2023-03-01T06:16:12;6.15;87.82
67799;SHT30;54596;43.216;27.904;2023-03-01T06:18:38;6.12;87.30
67799;SHT30;54596;43.216;27.904;2023-03-01T06:21:05;6.12;87.14
67799;SHT30;54596;43.216;27.904;2023-03-01T06:23:31;6.10;87.13
67799;SHT30;54596;43.216;27.904;2023-03-01T06:25:57;6.10;86.94
67799;SHT30;54596;43.216;27.904;2023-03-01T06:28:23;6.05;86.71
67799;SHT30;54596;43.216;27.904;2023-03-01T06:30:50;6.06;87.19
67799;SHT30;54596;43.216;27.904;2023-03-01T06:33:23;6.10;87.29
67799;SHT30;54596;43.216;27.904;2023-03-01T06:35:50;6.10;86.86
67799;SHT30;54596;43.216;27.904;2023-03-01T06:38:16;6.13;86.96
67799;SHT30;54596;43.216;27.904;2023-03-01T06:40:44;6.17;86.91
67799;SHT30;54596;43.216;27.904;2023-03-01T06:43:10;6.09;86.90
67799;SHT30;54596;43.216;27.904;2023-03-01T06:45:36;6.15;87.06
67799;SHT30;54596;43.216;27.904;2023-03-01T06:48:06;6.17;86.98
67799;SHT30;54596;43.216;27.904;2023-03-01T06:50:32;6.25;87.30
67799;SHT30;54596;43.216;27.904;2023-03-01T06:52:58;6.23;87.17
67799;SHT30;54596;43.216;27.904;2023-03-01T06:55:24;6.26;87.15
67799;SHT30;54596;43.216;27.904;2023-03-01T06:57:54;6.30;87.06
67799;SHT30;54596;43.216;27.904;2023-03-01T07:00:21;6.30;86.90
67799;SHT30;54596;43.216;27.904;2023-03-01T07:02:46;6.29;87.02
67799;SHT30;54596;43.216;27.904;2023-03-01T07:05:12;6.32;86.90
67799;SHT30;54596;43.216;27.904;2023-03-01T07:07:37;6.27;87.36
67799;SHT30;54596;43.216;27.904;2023-03-01T07:10:03;6.16;87.47
67799;SHT30;54596;43.216;27.904;2023-03-01T07:12:29;6.08;87.58
67799;SHT30;54596;43.216;27.904;2023-03-01T07:14:55;6.13;87.78
67799;SHT30;54596;43.216;27.904;2023-03-01T07:17:20;6.05;87.85
67799;SHT30;54596;43.216;27.904;2023-03-01T07:19:46;6.08;87.73
67799;SHT30;54596;43.216;27.904;2023-03-01T07:22:14;6.12;87.92
67799;SHT30;54596;43.216;27.904;2023-03-01T07:24:41;6.10;87.94
67799;SHT30;54596;43.216;27.904;2023-03-01T07:27:06;6.13;87.64
67799;SHT30;54596;43.216;27.904;2023-03-01T07:29:32;6.17;87.34
67799;SHT30;54596;43.216;27.904;2023-03-01T07:31:57;6.09;87.88
67799;SHT30;54596;43.216;27.904;2023-03-01T07:34:23;6.09;88.03
67799;SHT30;54596;43.216;27.904;2023-03-01T07:36:49;6.05;88.35
67799;SHT30;54596;43.216;27.904;2023-03-01T07:39:14;5.95;88.71
67799;SHT30;54596;43.216;27.904;2023-03-01T07:41:40;5.99;88.89
67799;SHT30;54596;43.216;27.904;2023-03-01T07:44:05;6.01;89.05
67799;SHT30;54596;43.216;27.904;2023-03-01T07:46:31;6.08;89.33
67799;SHT30;54596;43.216;27.904;2023-03-01T07:48:57;6.09;88.54
67799;SHT30;54596;43.216;27.904;2023-03-01T07:51:24;6.01;88.37
67799;SHT30;54596;43.216;27.904;2023-03-01T07:53:49;5.97;88.52
67799;SHT30;54596;43.216;27.904;2023-03-01T07:56:15;5.98;88.93
67799;SHT30;54596;43.216;27.904;2023-03-01T07:58:43;6.01;88.74
67799;SHT30;54596;43.216;27.904;2023-03-01T08:01:12;6.03;88.78
67799;SHT30;54596;43.216;27.904;2023-03-01T08:03:37;6.06;88.63
67799;SHT30;54596;43.216;27.904;2023-03-01T08:06:05;6.17;88.51
67799;SHT30;54596;43.216;27.904;2023-03-01T08:08:32;6.10;88.03
67799;SHT30;54596;43.216;27.904;2023-03-01T08:10:58;6.15;88.02
67799;SHT30;54596;43.216;27.904;2023-03-01T08:13:24;6.13;87.28
67799;SHT30;54596;43.216;27.904;2023-03-01T08:15:49;6.05;87.01
67799;SHT30;54596;43.216;27.904;2023-03-01T08:18:16;6.01;87.25
67799;SHT30;54596;43.216;27.904;2023-03-01T08:20:42;6.01;87.29
67799;SHT30;54596;43.216;27.904;2023-03-01T08:23:07;6.09;87.39
67799;SHT30;54596;43.216;27.904;2023-03-01T08:25:33;6.25;86.96
67799;SHT30;54596;43.216;27.904;2023-03-01T08:28:00;6.37;86.58
67799;SHT30;54596;43.216;27.904;2023-03-01T08:30:26;6.41;85.98
67799;SHT30;54596;43.216;27.904;2023-03-01T08:32:51;6.54;85.41
67799;SHT30;54596;43.216;27.904;2023-03-01T08:35:17;6.43;85.39
67799;SHT30;54596;43.216;27.904;2023-03-01T08:37:42;6.47;85.07
67799;SHT30;54596;43.216;27.904;2023-03-01T08:40:27;6.51;84.55
67799;SHT30;54596;43.216;27.904;2023-03-01T08:42:52;6.58;84.21
67799;SHT30;54596;43.216;27.904;2023-03-01T08:45:18;6.52;84.36
67799;SHT30;54596;43.216;27.904;2023-03-01T08:47:44;6.47;84.55
67799;SHT30;54596;43.216;27.904;2023-03-01T08:50:10;6.45;84.68
67799;SHT30;54596;43.216;27.904;2023-03-01T08:52:37;6.54;84.71
67799;SHT30;54596;43.216;27.904;2023-03-01T08:55:02;6.67;84.41
67799;SHT30;54596;43.216;27.904;2023-03-01T08:57:28;6.63;83.55
67799;SHT30;54596;43.216;27.904;2023-03-01T08:59:55;6.54;83.12
67799;SHT30;54596;43.216;27.904;2023-03-01T09:02:21;6.61;83.08
67799;SHT30;54596;43.216;27.904;2023-03-01T09:04:47;6.51;83.44
67799;SHT30;54596;43.216;27.904;2023-03-01T09:07:12;6.48;83.27
67799;SHT30;54596;43.216;27.904;2023-03-01T09:09:37;6.44;83.39
67799;SHT30;54596;43.216;27.904;2023-03-01T09:12:03;6.54;83.39
67799;SHT30;54596;43.216;27.904;2023-03-01T09:14:29;6.61;83.20
67799;SHT30;54596;43.216;27.904;2023-03-01T09:16:56;6.67;83.11
67799;SHT30;54596;43.216;27.904;2023-03-01T09:19:22;6.74;83.12
67799;SHT30;54596;43.216;27.904;2023-03-01T09:21:48;6.74;83.09
67799;SHT30;54596;43.216;27.904;2023-03-01T09:24:23;6.55;83.11
67799;SHT30;54596;43.216;27.904;2023-03-01T09:26:49;6.60;83.33
67799;SHT30;54596;43.216;27.904;2023-03-01T09:29:15;6.51;83.57
67799;SHT30;54596;43.216;27.904;2023-03-01T09:31:42;6.47;83.46
67799;SHT30;54596;43.216;27.904;2023-03-01T09:34:08;6.47;83.88
67799;SHT30;54596;43.216;27.904;2023-03-01T09:36:34;6.55;84.67
67799;SHT30;54596;43.216;27.904;2023-03-01T09:39:00;6.68;84.29
67799;SHT30;54596;43.216;27.904;2023-03-01T09:42:00;6.64;83.58
67799;SHT30;54596;43.216;27.904;2023-03-01T09:47:05;6.69;83.80
67799;SHT30;54596;43.216;27.904;2023-03-01T09:49:36;6.77;83.32
67799;SHT30;54596;43.216;27.904;2023-03-01T09:54:55;6.63;82.75
67799;SHT30;54596;43.216;27.904;2023-03-01T10:00:12;6.68;82.95
67799;SHT30;54596;43.216;27.904;2023-03-01T10:02:46;6.68;82.38
67799;SHT30;54596;43.216;27.904;2023-03-01T10:10:39;6.52;83.16
67799;SHT30;54596;43.216;27.904;2023-03-01T10:13:48;6.63;82.82
67799;SHT30;54596;43.216;27.904;2023-03-01T10:19:05;6.68;82.58
67799;SHT30;54596;43.216;27.904;2023-03-01T10:21:35;6.65;82.62
67799;SHT30;54596;43.216;27.904;2023-03-01T10:24:12;6.65;82.51
67799;SHT30;54596;43.216;27.904;2023-03-01T10:26:48;6.52;82.85
67799;SHT30;54596;43.216;27.904;2023-03-01T10:29:15;6.65;82.96
67799;SHT30;54596;43.216;27.904;2023-03-01T10:31:47;6.74;82.38
67799;SHT30;54596;43.216;27.904;2023-03-01T10:34:31;6.88;82.09
67799;SHT30;54596;43.216;27.904;2023-03-01T10:37:18;6.81;81.69
67799;SHT30;54596;43.216;27.904;2023-03-01T10:40:05;6.78;81.97
67799;SHT30;54596;43.216;27.904;2023-03-01T10:42:50;6.75;82.00
67799;SHT30;54596;43.216;27.904;2023-03-01T10:45:22;6.74;81.88
67799;SHT30;54596;43.216;27.904;2023-03-01T10:50:28;6.81;81.06
67799;SHT30;54596;43.216;27.904;2023-03-01T10:53:03;6.74;81.61
67799;SHT30;54596;43.216;27.904;2023-03-01T10:58:08;6.63;81.87
67799;SHT30;54596;43.216;27.904;2023-03-01T11:00:45;6.65;82.07
67799;SHT30;54596;43.216;27.904;2023-03-01T11:03:14;6.68;81.53
67799;SHT30;54596;43.216;27.904;2023-03-01T11:05:55;6.72;81.44
67799;SHT30;54596;43.216;27.904;2023-03-01T11:08:42;6.68;81.61
67799;SHT30;54596;43.216;27.904;2023-03-01T11:11:29;6.64;81.88
67799;SHT30;54596;43.216;27.904;2023-03-01T11:14:03;6.64;82.24
67799;SHT30;54596;43.216;27.904;2023-03-01T11:16:36;6.75;82.00
67799;SHT30;54596;43.216;27.904;2023-03-01T11:21:47;6.85;81.32
67799;SHT30;54596;43.216;27.904;2023-03-01T11:24:16;6.86;81.17
67799;SHT30;54596;43.216;27.904;2023-03-01T11:26:50;6.74;80.89
67799;SHT30;54596;43.216;27.904;2023-03-01T11:29:32;6.84;81.02
67799;SHT30;54596;43.216;27.904;2023-03-01T11:32:02;6.95;81.04
67799;SHT30;54596;43.216;27.904;2023-03-01T11:34:40;7.09;80.95
67799;SHT30;54596;43.216;27.904;2023-03-01T11:37:41;7.06;80.21
67799;SHT30;54596;43.216;27.904;2023-03-01T11:40:25;6.97;80.49
67799;SHT30;54596;43.216;27.904;2023-03-01T11:45:16;6.61;80.34
67799;SHT30;54596;43.216;27.904;2023-03-01T11:53:13;6.68;80.78
67799;SHT30;54596;43.216;27.904;2023-03-01T12:14:13;6.81;80.29
67799;SHT30;54596;43.216;27.904;2023-03-01T12:25:46;6.81;80.59
67799;SHT30;54596;43.216;27.904;2023-03-01T12:28:17;6.86;80.22
67799;SHT30;54596;43.216;27.904;2023-03-01T12:41:35;6.93;79.50
67799;SHT30;54596;43.216;27.904;2023-03-01T12:44:45;6.86;79.75
67799;SHT30;54596;43.216;27.904;2023-03-01T12:50:11;6.78;80.12
67799;SHT30;54596;43.216;27.904;2023-03-01T12:52:44;6.92;80.14
67799;SHT30;54596;43.216;27.904;2023-03-01T12:55:31;6.86;79.79
67799;SHT30;54596;43.216;27.904;2023-03-01T13:09:27;6.96;79.50
67799;SHT30;54596;43.216;27.904;2023-03-01T13:11:56;6.95;79.60
67799;SHT30;54596;43.216;27.904;2023-03-01T13:16:53;6.84;79.75
67799;SHT30;54596;43.216;27.904;2023-03-01T13:19:25;6.89;79.83
67799;SHT30;54596;43.216;27.904;2023-03-01T13:21:53;6.99;79.49
67799;SHT30;54596;43.216;27.904;2023-03-01T13:24:40;6.91;79.26
67799;SHT30;54596;43.216;27.904;2023-03-01T13:29:55;6.91;79.15
67799;SHT30;54596;43.216;27.904;2023-03-01T13:32:35;7.00;79.16
67799;SHT30;54596;43.216;27.904;2023-03-01T13:37:42;6.96;79.15
67799;SHT30;54596;43.216;27.904;2023-03-01T13:42:54;7.10;79.21
67799;SHT30;54596;43.216;27.904;2023-03-01T13:45:39;7.12;79.22
67799;SHT30;54596;43.216;27.904;2023-03-01T13:48:24;7.03;79.38
67799;SHT30;54596;43.216;27.904;2023-03-01T13:50:57;7.03;79.07
67799;SHT30;54596;43.216;27.904;2023-03-01T13:53:26;7.07;78.99
67799;SHT30;54596;43.216;27.904;2023-03-01T13:56:01;7.09;79.11
67799;SHT30;54596;43.216;27.904;2023-03-01T13:58:30;7.06;78.81
67799;SHT30;54596;43.216;27.904;2023-03-01T14:01:06;7.07;78.82
67799;SHT30;54596;43.216;27.904;2023-03-01T14:03:41;7.05;78.75
67799;SHT30;54596;43.216;27.904;2023-03-01T14:06:16;7.07;79.12
67799;SHT30;54596;43.216;27.904;2023-03-01T14:08:44;7.00;78.85
67799;SHT30;54596;43.216;27.904;2023-03-01T14:14:22;6.93;79.22
67799;SHT30;54596;43.216;27.904;2023-03-01T14:19:29;6.82;79.32
67799;SHT30;54596;43.216;27.904;2023-03-01T14:22:19;6.77;79.79
67799;SHT30;54596;43.216;27.904;2023-03-01T14:24:50;6.84;79.84
67799;SHT30;54596;43.216;27.904;2023-03-01T14:27:17;6.92;79.58
67799;SHT30;54596;43.216;27.904;2023-03-01T14:29:54;6.91;79.53
67799;SHT30;54596;43.216;27.904;2023-03-01T14:32:31;6.86;79.36
67799;SHT30;54596;43.216;27.904;2023-03-01T14:34:58;6.89;79.16
67799;SHT30;54596;43.216;27.904;2023-03-01T14:37:29;6.86;79.29
67799;SHT30;54596;43.216;27.904;2023-03-01T14:39:57;6.92;79.39
67799;SHT30;54596;43.216;27.904;2023-03-01T14:42:25;6.91;79.30
67799;SHT30;54596;43.216;27.904;2023-03-01T14:44:54;6.91;79.39
67799;SHT30;54596;43.216;27.904;2023-03-01T14:47:33;6.88;79.50
67799;SHT30;54596;43.216;27.904;2023-03-01T14:50:09;6.97;79.55
67799;SHT30;54596;43.216;27.904;2023-03-01T14:52:42;7.05;79.45
67799;SHT30;54596;43.216;27.904;2023-03-01T14:55:23;7.00;78.99
67799;SHT30;54596;43.216;27.904;2023-03-01T14:57:51;6.81;79.52
67799;SHT30;54596;43.216;27.904;2023-03-01T15:00:23;6.81;79.68
67799;SHT30;54596;43.216;27.904;2023-03-01T15:02:51;6.69;79.97
67799;SHT30;54596;43.216;27.904;2023-03-01T15:05:23;6.77;80.33
67799;SHT30;54596;43.216;27.904;2023-03-01T15:07:51;6.77;79.98
67799;SHT30;54596;43.216;27.904;2023-03-01T15:10:21;6.69;80.14
67799;SHT30;54596;43.216;27.904;2023-03-01T15:12:47;6.68;80.31
67799;SHT30;54596;43.216;27.904;2023-03-01T15:18:26;6.74;81.39
67799;SHT30;54596;43.216;27.904;2023-03-01T15:20:52;6.81;80.17
67799;SHT30;54596;43.216;27.904;2023-03-01T15:23:24;6.81;80.46
67799;SHT30;54596;43.216;27.904;2023-03-01T15:25:52;6.77;80.29
67799;SHT30;54596;43.216;27.904;2023-03-01T15:28:30;6.75;80.24
67799;SHT30;54596;43.216;27.904;2023-03-01T15:31:00;6.78;80.40
67799;SHT30;54596;43.216;27.904;2023-03-01T15:33:35;6.78;80.06
67799;SHT30;54596;43.216;27.904;2023-03-01T15:36:47;6.74;80.26
67799;SHT30;54596;43.216;27.904;2023-03-01T15:38:53;6.72;80.22
67799;SHT30;54596;43.216;27.904;2023-03-01T15:41:30;6.68;80.22
67799;SHT30;54596;43.216;27.904;2023-03-01T15:44:17;6.67;80.42
67799;SHT30;54596;43.216;27.904;2023-03-01T15:46:47;6.69;80.30
67799;SHT30;54596;43.216;27.904;2023-03-01T15:49:35;6.65;80.27
67799;SHT30;54596;43.216;27.904;2023-03-01T15:52:02;6.57;80.49
67799;SHT30;54596;43.216;27.904;2023-03-01T15:54:28;6.55;80.63
67799;SHT30;54596;43.216;27.904;2023-03-01T15:56:54;6.57;80.81
67799;SHT30;54596;43.216;27.904;2023-03-01T15:59:20;6.63;80.73
67799;SHT30;54596;43.216;27.904;2023-03-01T16:01:48;6.65;80.74
67799;SHT30;54596;43.216;27.904;2023-03-01T16:04:15;6.60;80.71
67799;SHT30;54596;43.216;27.904;2023-03-01T16:06:53;6.54;80.58
67799;SHT30;54596;43.216;27.904;2023-03-01T16:09:25;6.57;80.72
67799;SHT30;54596;43.216;27.904;2023-03-01T16:11:51;6.54;80.83
67799;SHT30;54596;43.216;27.904;2023-03-01T16:14:17;6.48;81.05
67799;SHT30;54596;43.216;27.904;2023-03-01T16:16:44;6.50;80.89
67799;SHT30;54596;43.216;27.904;2023-03-01T16:19:09;6.50;80.70
67799;SHT30;54596;43.216;27.904;2023-03-01T16:21:35;6.54;81.01
67799;SHT30;54596;43.216;27.904;2023-03-01T16:24:01;6.52;80.96
67799;SHT30;54596;43.216;27.904;2023-03-01T16:26:26;6.60;80.83
67799;SHT30;54596;43.216;27.904;2023-03-01T16:28:55;6.52;80.65
67799;SHT30;54596;43.216;27.904;2023-03-01T16:31:22;6.54;80.87
67799;SHT30;54596;43.216;27.904;2023-03-01T16:33:48;6.55;80.82
67799;SHT30;54596;43.216;27.904;2023-03-01T16:36:19;6.61;80.75
67799;SHT30;54596;43.216;27.904;2023-03-01T16:38:45;6.57;80.67
67799;SHT30;54596;43.216;27.904;2023-03-01T16:41:14;6.57;81.01
67799;SHT30;54596;43.216;27.904;2023-03-01T16:43:40;6.57;80.79
67799;SHT30;54596;43.216;27.904;2023-03-01T16:46:14;6.55;80.76
67799;SHT30;54596;43.216;27.904;2023-03-01T16:48:40;6.57;80.92
67799;SHT30;54596;43.216;27.904;2023-03-01T16:51:06;6.54;80.64
67799;SHT30;54596;43.216;27.904;2023-03-01T16:53:33;6.57;80.35
67799;SHT30;54596;43.216;27.904;2023-03-01T16:56:07;6.63;80.52
67799;SHT30;54596;43.216;27.904;2023-03-01T16:58:34;6.65;80.50
67799;SHT30;54596;43.216;27.904;2023-03-01T17:01:11;6.64;80.49
67799;SHT30;54596;43.216;27.904;2023-03-01T17:03:38;6.65;80.48
67799;SHT30;54596;43.216;27.904;2023-03-01T17:06:06;6.60;80.60
67799;SHT30;54596;43.216;27.904;2023-03-01T17:08:33;6.54;80.76
67799;SHT30;54596;43.216;27.904;2023-03-01T17:11:13;6.51;80.92
67799;SHT30;54596;43.216;27.904;2023-03-01T17:13:39;6.57;80.90
67799;SHT30;54596;43.216;27.904;2023-03-01T17:16:07;6.57;80.90
67799;SHT30;54596;43.216;27.904;2023-03-01T17:18:33;6.58;80.90
67799;SHT30;54596;43.216;27.904;2023-03-01T17:20:59;6.58;80.86
67799;SHT30;54596;43.216;27.904;2023-03-01T17:23:26;6.55;80.96
67799;SHT30;54596;43.216;27.904;2023-03-01T17:25:52;6.45;81.20
67799;SHT30;54596;43.216;27.904;2023-03-01T17:28:24;6.32;81.73
67799;SHT30;54596;43.216;27.904;2023-03-01T17:30:49;6.30;81.90
67799;SHT30;54596;43.216;27.904;2023-03-01T17:33:16;6.38;81.76
67799;SHT30;54596;43.216;27.904;2023-03-01T17:35:41;6.47;81.29
67799;SHT30;54596;43.216;27.904;2023-03-01T17:38:07;6.48;81.17
67799;SHT30;54596;43.216;27.904;2023-03-01T17:40:32;6.57;81.06